ESMK/KID METAR and TAF weather

Enter ICAO airport designator
Station Type Date Time Source
ESMK METAR 2022/12/04 11:50 UTC NOAA

ESMK 041150Z 04010KT 9999 BKN007 02/01 Q1026


Station Type Date Time Source
ESMK Decoded METAR 2022/12/04 11:50 UTC NOAA

Kristianstad / Everod, Sweden (ESMK) 55-55N 014-05E
Dec 04, 2022 - 06:50 AM EST / 2022.12.04 1150 UTC
Wind: from the NE (040 degrees) at 12 MPH (10 KT):0
Visibility: greater than 7 mile(s):0
Sky conditions: mostly cloudy
Temperature: 35 F (2 C)
Windchill: 26 F (-3 C):1
Dew Point: 33 F (1 C)
Relative Humidity: 93%
Pressure (altimeter): 30.30 in. Hg (1026 hPa)
ob: ESMK 041150Z 04010KT 9999 BKN007 02/01 Q1026
cycle: 12

Station Type Date Time Source
ESMK TAF 2020/07/19 09:57 UTC NOAA

TAF TAF ESMK 190930Z 1909/1921 13008KT CAVOK PROB40 1910/1919 SCT030TCU

Example: see airport list